Aeroporto :
LOGIN :

Iscrizione | Disclaimer

   EN    FR    IT 

 










Sommario :    VFR   VFR Marginale   IFR   IFR Intensivo   IFR Molto Intensivo
Visibilità : 
Base nubi : 
>= 8 km
>= 3000ft
5 / 8 km
1000 / 3000 ft
1500m / 5 km
500 / 1000 ft
800 / 1500m
200 / 500 ft
< 800m
< 200 ft
Simboli :   Temporali  Nebbia  Neve Forte  Precipitazioni Forti  Vento > 20 kt
SIGMETs :   Varie  Temporali  Ghiacco  Turbolenza  Onda orograficha  Ceneri Vulcaniche






- Altitudine del aeroporto : 568 ft


UUMO - Ostafyevo International

ULTIMO METAR :
  • 310100Z 07006G11MPS 8000 -SHRA OVC012CB 12/12 Q1008 R08/090060 NOSIG RMK QFE742/0989

METARs OBSOLETI :
  • 310000Z 06008MPS 9999 BKN011 14/13 Q1008 R08/090060 NOSIG RMK QFE742/0989
  • 302300Z 06007MPS 9999 BKN011 14/14 Q1008 R08/090060 NOSIG RMK QFE742/0989

TAF TAF UUMO
Valido dal 31 a 00 ore il 31 a 09 ore UTC


302249Z 3100/3109 06007G12MPS 6000 -SHRA BKN011 SCT030CB
PROB40
TEMPO 3100/3103 VRB15MPS -TSRA OVC007 BKN030CB
TEMPO 3103/3109 02007G12MPS 3100 -RA OVC007



MetMap, La meteo Aeronautica in un colpo d'occhio ! - Copyright ORBIFLY Dicembre 2007 - Disclaimer

ORBIFLY MET'MAP TEAM :

Programmazione e sviluppo : Alexandra Zaïnal
Concezione : Baudouin d'Aumeries
Aiuto per la programmazione : Marc-Olivier Méhu
Supporto tecnico e logistico : Manuel Goepfert
Aiuto per la traduzione : Arnaldo La Scala

Contatto : metmap@orbifly.com




FONTI E CREDITI :

   NOAA